Time;durP1;ratioP1;P1;durP2;ratioP2;P2;SDS_P1;SDS_P2;PMS_P1;PMS_P2;Temp;Humidity;BMP_temperature;BMP_pressure;BME280_temperature;BME280_humidity;BME280_pressure;Samples;Min_cycle;Max_cycle;Signal;HPM_P1;HPM_P2
2023/01/06 00:01:15;;;;;;;3.83;1.73;;;11.80;1.00;;;;;;4862147;29;20551;-87
2023/01/06 00:03:41;;;;;;;4.47;1.90;;;11.80;1.00;;;;;;4864914;29;20220;-88
2023/01/06 00:06:09;;;;;;;2.47;1.77;;;11.80;1.00;;;;;;4862751;29;20451;-89
2023/01/06 00:08:35;;;;;;;5.30;1.77;;;11.80;1.00;;;;;;4868307;29;21021;-89
2023/01/06 00:11:06;;;;;;;4.80;1.83;;;11.80;1.00;;;;;;4857448;29;20490;-89
2023/01/06 00:13:32;;;;;;;2.70;1.20;;;11.80;99.90;;;;;;4861164;29;20440;-89
2023/01/06 00:15:57;;;;;;;6.33;1.43;;;11.90;99.90;;;;;;4869559;29;20447;-89
2023/01/06 00:18:23;;;;;;;3.70;1.30;;;11.90;99.90;;;;;;4865440;29;20196;-87
2023/01/06 00:20:48;;;;;;;3.63;1.40;;;11.80;99.90;;;;;;4864425;29;20224;-89
2023/01/06 00:23:14;;;;;;;2.23;1.10;;;11.90;99.90;;;;;;4859209;29;20281;-88
2023/01/06 00:25:49;;;;;;;4.13;1.20;;;11.90;28.80;;;;;;4866238;29;20291;-88
2023/01/06 00:28:14;;;;;;;3.53;1.50;;;11.90;1.00;;;;;;4863029;29;20964;-89
2023/01/06 00:30:40;;;;;;;2.97;1.13;;;11.90;1.00;;;;;;4869196;29;20464;-89
2023/01/06 00:33:06;;;;;;;2.27;1.13;;;11.90;1.00;;;;;;4854553;29;20709;-89
2023/01/06 00:35:31;;;;;;;2.83;1.20;;;11.90;99.90;;;;;;4862398;29;20260;-87
2023/01/06 00:37:57;;;;;;;1.30;0.97;;;11.90;99.90;;;;;;4865022;29;20187;-88
2023/01/06 00:40:22;;;;;;;3.53;1.20;;;11.90;99.90;;;;;;4863168;29;20212;-89
2023/01/06 00:42:48;;;;;;;5.30;1.70;;;11.90;99.90;;;;;;4864982;29;20840;-87
2023/01/06 00:45:14;;;;;;;3.00;1.60;;;11.90;99.90;;;;;;4859513;29;20244;-89
2023/01/06 00:47:39;;;;;;;2.40;1.60;;;11.90;99.90;;;;;;4862404;29;20188;-88
2023/01/06 00:50:05;;;;;;;2.90;1.50;;;11.90;99.90;;;;;;4866548;29;20469;-89
2023/01/06 00:52:31;;;;;;;7.23;2.07;;;11.90;99.90;;;;;;4869976;29;20195;-88
2023/01/06 00:54:57;;;;;;;3.70;2.10;;;11.90;1.00;;;;;;4868169;29;20449;-88
2023/01/06 00:57:22;;;;;;;2.50;1.50;;;11.80;1.00;;;;;;4867509;29;20248;-88
2023/01/06 00:59:48;;;;;;;4.30;1.77;;;11.80;1.00;;;;;;4864732;29;20253;-89
2023/01/06 01:02:13;;;;;;;9.53;1.93;;;11.80;1.00;;;;;;4873831;29;20201;-89
2023/01/06 01:04:39;;;;;;;4.57;2.27;;;11.80;1.00;;;;;;4857466;29;20219;-88
2023/01/06 01:07:04;;;;;;;2.50;1.93;;;11.80;1.00;;;;;;4858830;29;20274;-89
2023/01/06 01:09:31;;;;;;;4.53;1.70;;;11.80;1.00;;;;;;4851925;29;20208;-88
2023/01/06 01:12:09;;;;;;;4.73;1.87;;;11.80;1.00;;;;;;4866986;29;20282;-90
2023/01/06 01:14:36;;;;;;;3.30;1.60;;;11.80;1.00;;;;;;4856399;29;20463;-89
2023/01/06 01:17:02;;;;;;;3.57;1.80;;;11.80;1.00;;;;;;4860631;29;20527;-89
2023/01/06 01:19:28;;;;;;;3.50;1.90;;;11.80;1.00;;;;;;4857339;29;20559;-88
2023/01/06 01:21:54;;;;;;;5.40;2.10;;;11.80;1.00;;;;;;4859832;29;20436;-88
2023/01/06 01:24:20;;;;;;;4.20;2.17;;;11.80;1.00;;;;;;4873602;29;20474;-89
2023/01/06 01:26:46;;;;;;;4.80;2.10;;;11.80;1.00;;;;;;4858339;29;20188;-89
2023/01/06 01:29:14;;;;;;;5.37;1.97;;;11.70;1.00;;;;;;4859238;29;20444;-87
2023/01/06 01:31:40;;;;;;;7.60;2.00;;;11.80;1.00;;;;;;4857368;29;20441;-88
2023/01/06 01:34:07;;;;;;;5.53;1.90;;;11.80;1.00;;;;;;4858935;29;20460;-88
2023/01/06 01:36:33;;;;;;;3.77;2.20;;;11.80;99.90;;;;;;4865223;29;20444;-88
2023/01/06 01:38:59;;;;;;;4.33;2.13;;;11.80;99.90;;;;;;4858988;29;21024;-88
2023/01/06 01:41:26;;;;;;;10.10;1.83;;;11.80;99.90;;;;;;4861989;29;20223;-88
2023/01/06 01:43:51;;;;;;;5.57;1.93;;;11.80;99.90;;;;;;4861692;29;20962;-88
2023/01/06 01:46:42;;;;;;;4.07;1.73;;;11.70;99.90;;;;;;4867005;29;20484;-88
2023/01/06 01:49:29;;;;;;;8.47;2.80;;;11.80;99.90;;;;;;4845747;29;20574;-88
2023/01/06 01:51:55;;;;;;;6.10;1.90;;;11.80;99.90;;;;;;4862886;29;20448;-89
2023/01/06 01:54:29;;;;;;;2.60;1.13;;;11.80;1.00;;;;;;4862038;29;20535;-89
2023/01/06 01:57:00;;;;;;;2.00;1.60;;;11.80;1.00;;;;;;4875735;29;20921;-89
2023/01/06 01:59:29;;;;;;;2.90;1.47;;;11.80;1.00;;;;;;4864240;29;20550;-88
2023/01/06 02:01:55;;;;;;;2.83;1.50;;;11.80;1.00;;;;;;4864373;29;20967;-88
2023/01/06 02:04:23;;;;;;;4.33;1.57;;;11.80;1.00;;;;;;4861439;29;20464;-88
2023/01/06 02:06:49;;;;;;;20.97;2.73;;;11.80;99.90;;;;;;4869635;29;20245;-88
2023/01/06 02:09:23;;;;;;;3.53;2.10;;;11.80;99.90;;;;;;4855733;29;20449;-88
2023/01/06 02:11:51;;;;;;;7.03;1.47;;;11.80;41.30;;;;;;4861106;29;20443;-88
2023/01/06 02:14:22;;;;;;;9.63;1.67;;;11.80;1.00;;;;;;4860352;29;20449;-89
2023/01/06 02:17:17;;;;;;;4.20;1.40;;;11.80;99.90;;;;;;4865402;29;20441;-88
2023/01/06 02:20:20;;;;;;;5.00;1.20;;;11.80;1.00;;;;;;4865683;29;21062;-89
2023/01/06 02:23:25;;;;;;;1.90;1.10;;;11.80;1.00;;;;;;4868716;29;20448;-89
2023/01/06 02:25:53;;;;;;;3.73;1.40;;;11.80;99.90;;;;;;4859725;29;20444;-88
2023/01/06 02:28:48;;;;;;;1.37;0.93;;;11.80;1.00;;;;;;4861562;29;20449;-88
2023/01/06 02:31:37;;;;;;;6.50;1.53;;;11.80;1.00;;;;;;4864210;29;20464;-88
2023/01/06 02:34:40;;;;;;;5.00;1.17;;;11.80;1.00;;;;;;4857881;29;20459;-89
2023/01/06 02:37:22;;;;;;;2.60;1.20;;;11.90;99.90;;;;;;4851144;29;20496;-88
2023/01/06 02:40:03;;;;;;;2.50;1.23;;;11.90;1.00;;;;;;4863469;29;20493;-89
2023/01/06 02:42:43;;;;;;;3.50;1.00;;;11.90;1.00;;;;;;4865671;29;20449;-88
2023/01/06 02:45:40;;;;;;;2.50;1.33;;;11.90;1.00;;;;;;4864773;29;20993;-88
2023/01/06 02:48:40;;;;;;;8.37;1.70;;;11.80;99.90;;;;;;4859498;29;20441;-86
2023/01/06 02:51:14;;;;;;;4.00;1.57;;;11.80;99.90;;;;;;4868680;29;20452;-89
2023/01/06 02:53:57;;;;;;;3.93;1.70;;;11.80;1.00;;;;;;4860848;29;20453;-88
2023/01/06 02:56:28;;;;;;;4.07;1.50;;;11.80;1.00;;;;;;4870914;29;20460;-88
2023/01/06 02:59:03;;;;;;;5.10;1.53;;;11.80;99.90;;;;;;4861765;29;20464;-88
2023/01/06 03:01:37;;;;;;;5.60;1.70;;;11.80;99.90;;;;;;4864499;29;20444;-89
2023/01/06 03:04:09;;;;;;;3.80;1.23;;;11.80;99.90;;;;;;4857523;29;20482;-88
2023/01/06 03:06:43;;;;;;;4.13;1.70;;;11.80;99.90;;;;;;4867981;29;20440;-88
2023/01/06 03:09:12;;;;;;;3.27;1.80;;;11.70;1.00;;;;;;4862053;29;20441;-89
2023/01/06 03:11:40;;;;;;;2.53;1.30;;;11.80;1.00;;;;;;4861439;29;20441;-89
2023/01/06 03:14:21;;;;;;;5.63;1.53;;;11.80;1.00;;;;;;4873168;29;20440;-89
2023/01/06 03:16:47;;;;;;;2.20;1.53;;;11.80;1.00;;;;;;4865228;29;20460;-88
2023/01/06 03:19:13;;;;;;;7.63;1.90;;;11.80;2.00;;;;;;4875880;29;20450;-88
2023/01/06 03:21:43;;;;;;;3.37;1.50;;;11.80;41.50;;;;;;4874326;29;20212;-88
2023/01/06 03:24:10;;;;;;;3.80;1.47;;;11.70;99.90;;;;;;4871788;29;20567;-89
2023/01/06 03:26:37;;;;;;;2.40;1.80;;;11.80;99.90;;;;;;4858938;29;20457;-89
2023/01/06 03:29:06;;;;;;;2.40;1.53;;;11.80;99.90;;;;;;4867949;29;20451;-88
2023/01/06 03:31:59;;;;;;;5.97;1.27;;;11.70;99.90;;;;;;4863227;29;20445;-90
2023/01/06 03:35:02;;;;;;;2.43;1.10;;;11.70;99.90;;;;;;4859543;29;20457;-88
2023/01/06 03:37:45;;;;;;;6.50;1.80;;;11.70;99.90;;;;;;4860897;29;20504;-89
2023/01/06 03:40:32;;;;;;;5.13;1.57;;;11.70;99.90;;;;;;4868075;29;20472;-88
2023/01/06 03:43:26;;;;;;;2.50;1.10;;;11.70;99.90;;;;;;4863391;29;20447;-89
2023/01/06 03:46:06;;;;;;;6.10;1.70;;;11.70;99.90;;;;;;4856605;29;20453;-88
2023/01/06 03:48:53;;;;;;;7.83;1.43;;;11.70;99.90;;;;;;4863514;29;20487;-89
2023/01/06 03:51:42;;;;;;;2.90;1.00;;;11.70;99.90;;;;;;4869948;29;20511;-89
2023/01/06 03:54:37;;;;;;;7.30;1.90;;;11.70;99.90;;;;;;4857839;29;20433;-88
2023/01/06 03:57:08;;;;;;;3.10;1.00;;;11.70;99.90;;;;;;4858295;29;20495;-89
2023/01/06 03:59:41;;;;;;;6.10;1.30;;;11.70;88.60;;;;;;4859948;29;20884;-89
2023/01/06 04:02:08;;;;;;;2.30;1.00;;;11.70;28.30;;;;;;4871483;29;20448;-89
2023/01/06 04:04:33;;;;;;;5.90;1.13;;;11.70;1.00;;;;;;4863732;29;21056;-89
2023/01/06 04:06:59;;;;;;;2.23;1.00;;;11.70;1.00;;;;;;4858354;29;20556;-88
2023/01/06 04:09:24;;;;;;;4.20;1.50;;;11.70;1.00;;;;;;4872473;29;20238;-88
2023/01/06 04:14:34;;;;;;;10.03;1.60;;;11.60;99.90;;;;;;4868983;29;20275;-88
2023/01/06 04:17:00;;;;;;;8.00;1.50;;;11.60;99.90;;;;;;4860196;29;20449;-90
2023/01/06 04:19:34;;;;;;;3.53;1.03;;;11.60;99.90;;;;;;4863773;29;20456;-89
2023/01/06 04:22:02;;;;;;;2.93;0.93;;;11.60;1.00;;;;;;4865591;29;20200;-89
2023/01/06 04:24:32;;;;;;;4.77;1.10;;;11.60;1.00;;;;;;4852839;29;20478;-88
2023/01/06 04:27:07;;;;;;;2.87;1.03;;;11.60;1.00;;;;;;4852543;29;20472;-88
2023/01/06 04:29:35;;;;;;;3.90;1.03;;;11.60;1.00;;;;;;4861794;29;20454;-89
2023/01/06 04:32:01;;;;;;;2.10;1.10;;;11.60;1.00;;;;;;4871886;29;20437;-90
2023/01/06 04:34:40;;;;;;;5.53;1.27;;;11.60;1.00;;;;;;4865717;29;20441;-89
2023/01/06 04:37:06;;;;;;;4.63;1.60;;;11.50;1.00;;;;;;4859221;29;20204;-89
2023/01/06 04:39:34;;;;;;;7.00;1.50;;;11.50;1.00;;;;;;4860831;29;20458;-89
2023/01/06 04:42:00;;;;;;;3.10;1.20;;;11.50;62.60;;;;;;4866034;29;20188;-89
2023/01/06 04:44:25;;;;;;;4.97;1.33;;;11.50;99.90;;;;;;4861848;29;20465;-89
2023/01/06 04:46:54;;;;;;;3.10;1.90;;;11.50;99.90;;;;;;4865131;29;20191;-89
2023/01/06 04:49:20;;;;;;;3.93;1.43;;;11.40;99.90;;;;;;4848373;29;20215;-89
2023/01/06 04:51:45;;;;;;;7.33;1.47;;;11.40;99.90;;;;;;4858881;29;20866;-89
2023/01/06 04:54:11;;;;;;;3.83;1.20;;;11.40;1.00;;;;;;4861679;29;20661;-90
2023/01/06 04:56:39;;;;;;;3.93;1.37;;;11.40;1.00;;;;;;4859868;29;20185;-90
2023/01/06 04:59:04;;;;;;;1.70;0.90;;;11.40;1.00;;;;;;4866028;29;20208;-88
2023/01/06 05:01:42;;;;;;;5.07;1.30;;;11.40;1.00;;;;;;4850508;29;21032;-90
2023/01/06 05:04:08;;;;;;;2.70;1.10;;;11.40;1.00;;;;;;4864198;29;20239;-89
2023/01/06 05:06:38;;;;;;;18.50;2.03;;;11.40;1.00;;;;;;4859075;29;20528;-89
2023/01/06 05:09:07;;;;;;;1.80;1.30;;;11.40;1.00;;;;;;4864346;29;20235;-88
2023/01/06 05:11:41;;;;;;;2.43;1.10;;;11.40;4.60;;;;;;4857102;29;20440;-89
2023/01/06 05:14:06;;;;;;;2.57;1.90;;;11.40;56.30;;;;;;4863408;29;20506;-89
2023/01/06 05:16:37;;;;;;;2.70;1.20;;;11.40;99.90;;;;;;4860198;29;20946;-89
2023/01/06 05:19:08;;;;;;;5.50;1.50;;;11.40;99.90;;;;;;4863224;29;20630;-89
2023/01/06 05:21:46;;;;;;;1.90;1.10;;;11.40;99.90;;;;;;4858167;29;20435;-88
2023/01/06 05:27:00;;;;;;;3.63;1.63;;;11.40;99.90;;;;;;4861015;29;20531;-89
2023/01/06 05:29:25;;;;;;;1.60;1.13;;;11.40;99.90;;;;;;4862340;29;20563;-89
2023/01/06 05:31:51;;;;;;;2.47;1.30;;;11.40;99.90;;;;;;4861176;29;20223;-90
2023/01/06 05:34:16;;;;;;;10.33;1.40;;;11.40;99.90;;;;;;4872388;29;20196;-89
2023/01/06 05:36:42;;;;;;;4.23;1.73;;;11.40;99.90;;;;;;4863559;29;20199;-89
2023/01/06 05:39:08;;;;;;;6.90;1.70;;;11.40;99.90;;;;;;4867487;29;20254;-89
2023/01/06 05:41:33;;;;;;;1.73;1.20;;;11.40;99.90;;;;;;4872279;29;20686;-89
2023/01/06 05:43:59;;;;;;;2.60;1.10;;;11.40;1.00;;;;;;4870661;29;20220;-89
2023/01/06 05:46:24;;;;;;;4.33;2.33;;;11.40;1.00;;;;;;4870282;29;20187;-89
2023/01/06 05:48:50;;;;;;;5.67;1.20;;;11.40;1.00;;;;;;4868330;29;20224;-89
2023/01/06 05:51:15;;;;;;;10.63;2.90;;;11.40;99.90;;;;;;4869266;29;20204;-89
2023/01/06 05:53:43;;;;;;;3.87;1.20;;;11.40;99.90;;;;;;4875830;29;20207;-88
2023/01/06 05:56:12;;;;;;;4.87;1.30;;;11.40;99.90;;;;;;4861905;29;20223;-88
2023/01/06 05:58:41;;;;;;;5.27;1.20;;;11.40;99.90;;;;;;4860877;29;20548;-89
2023/01/06 06:01:20;;;;;;;1.40;1.00;;;11.40;99.90;;;;;;4868784;29;20479;-90
2023/01/06 06:03:46;;;;;;;1.97;1.20;;;11.40;99.90;;;;;;4852685;29;20970;-89
2023/01/06 06:06:12;;;;;;;4.13;1.50;;;11.40;99.90;;;;;;4853505;29;20448;-89
2023/01/06 06:08:37;;;;;;;2.73;1.13;;;11.40;99.90;;;;;;4862524;29;20268;-88
2023/01/06 06:11:12;;;;;;;1.63;0.90;;;11.40;99.90;;;;;;4865374;29;20211;-89
2023/01/06 06:13:38;;;;;;;5.10;1.70;;;11.40;99.90;;;;;;4867115;29;20195;-90
2023/01/06 06:16:08;;;;;;;1.77;1.00;;;11.40;99.90;;;;;;4864175;29;20448;-89
2023/01/06 06:18:39;;;;;;;1.63;0.93;;;11.40;99.90;;;;;;4867624;29;20453;-87
2023/01/06 06:21:05;;;;;;;2.03;1.43;;;11.40;99.90;;;;;;4853387;29;21296;-89
2023/01/06 06:23:31;;;;;;;2.93;1.73;;;11.40;82.90;;;;;;4858512;29;20508;-89
2023/01/06 06:25:56;;;;;;;1.57;0.90;;;11.40;1.00;;;;;;4865833;29;20207;-89
2023/01/06 06:28:22;;;;;;;4.27;1.50;;;11.40;1.00;;;;;;4860433;29;20895;-89
2023/01/06 06:30:48;;;;;;;2.37;1.13;;;11.40;1.00;;;;;;4863738;29;20629;-89
2023/01/06 06:33:13;;;;;;;3.67;1.20;;;11.40;1.00;;;;;;4858023;29;20451;-89
2023/01/06 06:35:39;;;;;;;3.90;1.00;;;11.40;1.00;;;;;;4864999;29;20263;-88
2023/01/06 06:38:05;;;;;;;4.43;1.37;;;11.30;1.00;;;;;;4868657;29;20196;-89
2023/01/06 06:40:30;;;;;;;3.80;1.27;;;11.30;1.00;;;;;;4852658;29;20300;-90
2023/01/06 06:42:56;;;;;;;1.97;1.00;;;11.30;99.90;;;;;;4864114;29;20188;-89
2023/01/06 06:45:22;;;;;;;5.33;1.40;;;11.30;99.90;;;;;;4861889;29;20276;-89
2023/01/06 06:47:47;;;;;;;6.23;3.83;;;11.30;99.90;;;;;;4871248;29;20441;-89
2023/01/06 06:50:13;;;;;;;1.50;0.93;;;11.30;99.90;;;;;;4873298;29;20294;-88
2023/01/06 06:52:38;;;;;;;1.43;0.77;;;11.30;99.90;;;;;;4865028;29;20256;-88
2023/01/06 06:55:05;;;;;;;2.80;0.90;;;11.30;99.90;;;;;;4867582;29;20191;-88
2023/01/06 06:57:30;;;;;;;2.00;1.10;;;11.30;99.90;;;;;;4881806;29;20195;-88
2023/01/06 06:59:56;;;;;;;2.40;1.00;;;11.30;99.90;;;;;;4854013;29;21346;-88
2023/01/06 07:02:21;;;;;;;3.37;1.10;;;11.30;1.00;;;;;;4860437;29;20226;-89
2023/01/06 07:04:47;;;;;;;2.27;1.27;;;11.30;1.00;;;;;;4861958;29;20215;-89
2023/01/06 07:07:12;;;;;;;1.53;1.20;;;11.30;1.00;;;;;;4864810;29;20194;-89
2023/01/06 07:09:38;;;;;;;1.70;1.00;;;11.30;1.00;;;;;;4862940;29;20252;-88
2023/01/06 07:12:04;;;;;;;1.67;0.87;;;11.30;1.00;;;;;;4874417;29;20202;-88
2023/01/06 07:14:29;;;;;;;3.80;1.00;;;11.30;1.00;;;;;;4871999;29;20203;-88
2023/01/06 07:16:58;;;;;;;2.50;1.17;;;11.40;1.00;;;;;;4861667;29;20599;-89
2023/01/06 07:19:24;;;;;;;1.80;1.00;;;11.30;1.00;;;;;;4866068;29;20220;-89
2023/01/06 07:21:49;;;;;;;2.47;1.10;;;11.30;99.90;;;;;;4865478;29;20463;-88
2023/01/06 07:24:15;;;;;;;2.77;1.43;;;11.30;99.90;;;;;;4873004;29;20215;-87
2023/01/06 07:26:40;;;;;;;3.50;1.93;;;11.30;1.00;;;;;;4864868;29;20196;-88
2023/01/06 07:29:06;;;;;;;4.93;4.43;;;11.30;1.00;;;;;;4865344;29;20190;-87
2023/01/06 07:31:31;;;;;;;2.77;2.07;;;11.30;1.00;;;;;;4857254;29;20184;-89
2023/01/06 07:33:57;;;;;;;3.77;1.30;;;11.30;1.00;;;;;;4860877;29;20245;-87
2023/01/06 07:36:22;;;;;;;1.80;1.20;;;11.30;40.70;;;;;;4853124;29;20236;-89
2023/01/06 07:38:48;;;;;;;6.80;0.90;;;11.40;63.30;;;;;;4879723;29;20298;-89
2023/01/06 07:41:13;;;;;;;2.37;0.93;;;11.50;7.90;;;;;;4859927;29;20261;-88
2023/01/06 07:43:39;;;;;;;6.47;1.00;;;11.50;1.00;;;;;;4871497;29;20204;-88
2023/01/06 07:46:05;;;;;;;1.30;0.90;;;11.50;1.00;;;;;;4861674;29;20251;-89
2023/01/06 07:48:30;;;;;;;2.33;0.93;;;11.60;1.00;;;;;;4858197;29;20201;-89
2023/01/06 07:50:57;;;;;;;1.60;0.80;;;11.60;1.00;;;;;;4861448;29;20227;-91
2023/01/06 07:53:28;;;;;;;2.30;0.90;;;11.60;1.00;;;;;;4855075;29;20199;-91
2023/01/06 07:55:54;;;;;;;2.80;0.90;;;11.60;1.00;;;;;;4859351;29;20459;-90
2023/01/06 07:58:22;;;;;;;4.73;0.80;;;11.60;1.00;;;;;;4859702;29;20447;-90
2023/01/06 08:00:48;;;;;;;1.87;0.90;;;11.60;1.00;;;;;;4852063;29;20465;-89
2023/01/06 08:03:14;;;;;;;5.17;0.80;;;11.60;1.00;;;;;;4861293;29;21067;-89
2023/01/06 08:05:40;;;;;;;1.43;0.80;;;11.70;1.00;;;;;;4862024;29;20188;-88
2023/01/06 08:08:06;;;;;;;1.90;1.00;;;11.70;1.00;;;;;;4864704;29;20324;-90
2023/01/06 08:10:32;;;;;;;3.53;1.23;;;11.70;1.00;;;;;;4851544;29;20918;-90
2023/01/06 08:12:58;;;;;;;1.83;0.90;;;11.70;1.00;;;;;;4862298;29;20534;-89
2023/01/06 08:15:26;;;;;;;1.40;0.93;;;11.70;1.00;;;;;;4856105;29;20191;-90
2023/01/06 08:17:53;;;;;;;1.53;0.93;;;11.70;1.00;;;;;;4866616;29;20207;-91
2023/01/06 08:20:19;;;;;;;1.60;1.20;;;11.70;1.00;;;;;;4871878;29;20463;-89
2023/01/06 08:22:48;;;;;;;1.40;1.20;;;11.70;1.00;;;;;;4863699;29;20473;-89
2023/01/06 08:25:19;;;;;;;1.47;1.07;;;11.70;1.00;;;;;;4860924;29;20508;-90
2023/01/06 08:27:44;;;;;;;1.23;0.77;;;11.70;25.90;;;;;;4862735;29;20437;-90
2023/01/06 08:30:10;;;;;;;2.70;1.00;;;11.70;98.40;;;;;;4869073;29;20471;-90
2023/01/06 08:32:36;;;;;;;1.63;0.70;;;11.70;99.90;;;;;;4872724;29;20222;-89
2023/01/06 08:35:01;;;;;;;1.10;0.67;;;11.70;99.90;;;;;;4857506;29;20492;-88
2023/01/06 08:37:27;;;;;;;1.13;0.97;;;11.70;99.90;;;;;;4859230;29;20217;-91
2023/01/06 08:40:01;;;;;;;1.67;0.80;;;11.80;99.90;;;;;;4845021;29;20216;-92
2023/01/06 08:42:27;;;;;;;2.13;0.87;;;11.80;99.90;;;;;;4854016;29;20202;-89
2023/01/06 08:45:11;;;;;;;1.23;0.80;;;11.80;99.90;;;;;;4870460;29;20473;-89
2023/01/06 08:47:37;;;;;;;2.03;1.00;;;11.90;1.00;;;;;;4859194;29;20188;-89
2023/01/06 08:50:03;;;;;;;1.17;0.90;;;11.90;1.00;;;;;;4855212;29;20485;-89
2023/01/06 08:52:29;;;;;;;1.40;0.70;;;11.90;1.00;;;;;;4847867;29;20224;-89
2023/01/06 08:54:54;;;;;;;1.10;0.70;;;12.00;1.00;;;;;;4861049;29;20440;-89
2023/01/06 08:57:23;;;;;;;4.07;0.90;;;11.90;1.00;;;;;;4870262;29;20195;-88
2023/01/06 08:59:48;;;;;;;2.37;0.90;;;11.90;1.00;;;;;;4871881;29;20626;-88
2023/01/06 09:02:14;;;;;;;2.10;0.93;;;11.80;1.00;;;;;;4861965;29;20449;-88
2023/01/06 09:04:40;;;;;;;1.47;1.00;;;11.90;50.00;;;;;;4864632;29;20213;-87
2023/01/06 09:07:05;;;;;;;1.80;0.83;;;11.80;99.90;;;;;;4870380;29;20180;-88
2023/01/06 09:09:31;;;;;;;1.50;0.80;;;11.80;99.90;;;;;;4859106;29;20236;-87
2023/01/06 09:11:59;;;;;;;1.20;0.80;;;11.80;99.90;;;;;;4869217;29;20192;-87
2023/01/06 09:14:28;;;;;;;2.37;1.10;;;11.80;99.90;;;;;;4859861;29;20500;-88
2023/01/06 09:16:54;;;;;;;1.83;0.90;;;11.80;99.90;;;;;;4865902;29;20584;-88
2023/01/06 09:19:23;;;;;;;1.27;0.70;;;11.80;99.90;;;;;;4863974;29;20550;-86
2023/01/06 09:21:48;;;;;;;12.33;6.50;;;11.80;99.90;;;;;;4856689;29;20211;-86
2023/01/06 09:24:15;;;;;;;1.40;1.13;;;11.80;99.90;;;;;;4853076;29;20472;-86
2023/01/06 09:26:41;;;;;;;1.60;1.10;;;11.80;99.90;;;;;;4859241;29;20649;-86
2023/01/06 09:29:07;;;;;;;3.13;0.93;;;11.80;99.90;;;;;;4862593;29;20451;-85
2023/01/06 09:31:35;;;;;;;2.90;1.20;;;11.70;1.00;;;;;;4868198;29;20712;-85
2023/01/06 09:34:01;;;;;;;1.50;1.20;;;11.70;1.00;;;;;;4856131;29;20200;-85
2023/01/06 09:36:27;;;;;;;1.50;0.97;;;11.70;1.00;;;;;;4859229;29;20451;-85
2023/01/06 09:38:52;;;;;;;2.10;1.10;;;11.70;1.00;;;;;;4858993;29;20684;-86
2023/01/06 09:41:40;;;;;;;2.90;1.10;;;11.60;1.00;;;;;;4856361;29;20563;-86
2023/01/06 09:44:29;;;;;;;1.43;1.17;;;11.70;1.00;;;;;;4866415;29;20214;-85
2023/01/06 09:46:57;;;;;;;5.20;1.20;;;11.60;1.00;;;;;;4857142;29;21118;-86
2023/01/06 09:50:01;;;;;;;1.40;1.30;;;11.70;1.00;;;;;;4859608;29;20562;-86
2023/01/06 09:52:36;;;;;;;2.13;1.30;;;11.70;1.00;;;;;;4843598;29;20525;-86
2023/01/06 09:55:38;;;;;;;1.60;0.80;;;11.80;1.00;;;;;;4866056;29;20459;-88
2023/01/06 09:58:27;;;;;;;1.20;1.00;;;11.80;1.00;;;;;;4850806;29;20973;-88
2023/01/06 10:00:55;;;;;;;1.40;0.90;;;11.90;1.00;;;;;;4862659;29;20555;-87
2023/01/06 10:03:23;;;;;;;3.60;1.20;;;11.90;1.00;;;;;;4867317;29;20445;-86
2023/01/06 10:06:09;;;;;;;1.77;1.30;;;11.90;1.00;;;;;;4863077;29;20448;-87
2023/01/06 10:09:07;;;;;;;1.70;1.10;;;12.00;1.00;;;;;;4874736;29;20530;-88
2023/01/06 10:12:07;;;;;;;2.40;1.10;;;12.00;1.00;;;;;;4855951;29;20531;-87
2023/01/06 10:14:54;;;;;;;1.90;1.23;;;12.00;1.00;;;;;;4864608;29;20444;-86
2023/01/06 10:17:48;;;;;;;1.37;1.10;;;12.00;1.00;;;;;;4865653;29;20473;-86
2023/01/06 10:20:33;;;;;;;1.40;1.03;;;12.00;1.00;;;;;;4868771;29;21065;-88
2023/01/06 10:23:14;;;;;;;1.53;0.90;;;12.00;1.00;;;;;;4862308;29;20455;-87
2023/01/06 10:26:25;;;;;;;1.80;1.30;;;12.10;1.00;;;;;;4868444;29;20531;-87
2023/01/06 10:28:56;;;;;;;3.00;1.17;;;12.20;1.00;;;;;;4863756;29;20451;-87
2023/01/06 10:31:29;;;;;;;1.60;1.17;;;12.30;99.90;;;;;;4882347;29;20466;-86
2023/01/06 10:33:56;;;;;;;4.17;2.33;;;12.40;99.90;;;;;;4874134;29;20471;-86
2023/01/06 10:36:41;;;;;;;4.67;3.17;;;12.40;99.90;;;;;;4864642;29;20992;-87
2023/01/06 10:39:15;;;;;;;1.90;1.30;;;12.50;99.90;;;;;;4870320;29;20444;-87
2023/01/06 10:44:47;;;;;;;1.57;1.30;;;13.30;99.90;;;;;;4864368;29;20479;-87
2023/01/06 10:47:40;;;;;;;2.93;1.00;;;13.90;1.00;;;;;;4868011;29;20819;-87
2023/01/06 10:50:22;;;;;;;3.40;2.13;;;14.00;1.00;;;;;;4858256;29;20215;-86
2023/01/06 10:52:51;;;;;;;3.30;1.30;;;14.10;99.90;;;;;;4869872;29;20451;-87
2023/01/06 10:55:47;;;;;;;1.10;0.80;;;14.00;1.00;;;;;;4860519;29;20545;-86
2023/01/06 10:58:33;;;;;;;2.00;1.70;;;13.80;1.00;;;;;;4865936;29;20454;-86
2023/01/06 11:01:05;;;;;;;4.10;3.47;;;13.60;99.90;;;;;;4873831;29;20479;-85
2023/01/06 11:03:31;;;;;;;6.93;6.37;;;13.60;99.90;;;;;;4873284;29;20439;-86
2023/01/06 11:06:06;;;;;;;6.90;6.30;;;13.60;99.90;;;;;;4860516;29;20457;-85
2023/01/06 11:08:33;;;;;;;2.37;2.17;;;13.50;99.90;;;;;;4864219;29;20191;-86
2023/01/06 11:10:58;;;;;;;1.47;1.37;;;13.40;99.90;;;;;;4861612;29;20832;-86
2023/01/06 11:13:35;;;;;;;5.97;4.87;;;13.40;1.00;;;;;;4869073;29;20459;-86
2023/01/06 11:16:22;;;;;;;1.30;1.20;;;13.40;1.00;;;;;;4858224;29;20256;-86
2023/01/06 11:18:57;;;;;;;6.17;5.60;;;13.50;99.90;;;;;;4865991;29;20441;-86
2023/01/06 11:21:39;;;;;;;2.00;1.80;;;13.50;99.90;;;;;;4872787;29;20506;-87
2023/01/06 11:24:20;;;;;;;2.47;2.00;;;13.50;99.90;;;;;;4856636;29;20474;-86
2023/01/06 11:26:54;;;;;;;2.00;1.80;;;13.50;99.90;;;;;;4871997;29;20445;-86
2023/01/06 11:29:32;;;;;;;2.43;1.70;;;13.40;99.90;;;;;;4865326;29;20436;-87
2023/01/06 11:32:15;;;;;;;2.70;1.73;;;13.40;1.00;;;;;;4864229;29;20447;-86
2023/01/06 11:34:55;;;;;;;4.03;1.87;;;13.30;1.00;;;;;;4870443;29;20517;-86
2023/01/06 11:37:42;;;;;;;5.43;4.30;;;13.30;99.90;;;;;;4877645;29;20449;-86
2023/01/06 11:40:30;;;;;;;1.60;1.40;;;13.20;1.00;;;;;;4867121;29;20479;-86
2023/01/06 11:43:05;;;;;;;6.00;5.40;;;13.10;5.50;;;;;;4858392;29;20447;-86
2023/01/06 11:45:36;;;;;;;2.33;1.33;;;13.10;99.90;;;;;;4864538;29;20516;-86
2023/01/06 11:48:13;;;;;;;2.77;1.60;;;13.40;99.90;;;;;;4872867;29;20510;-86
2023/01/06 11:50:39;;;;;;;3.80;3.37;;;13.70;99.90;;;;;;4873276;29;20479;-86
2023/01/06 11:53:15;;;;;;;1.57;0.93;;;13.90;1.00;;;;;;4871553;29;20428;-87
2023/01/06 11:55:41;;;;;;;2.23;1.33;;;13.80;1.00;;;;;;4882347;29;20429;-86
2023/01/06 11:58:15;;;;;;;2.53;2.30;;;13.60;1.00;;;;;;4866562;29;20860;-86
2023/01/06 12:01:06;;;;;;;6.60;4.90;;;13.50;1.00;;;;;;4863103;29;20444;-86
2023/01/06 12:03:41;;;;;;;7.40;3.50;;;13.40;1.00;;;;;;4858266;29;20502;-86
2023/01/06 12:06:12;;;;;;;50.70;31.63;;;13.30;83.90;;;;;;4861103;29;20441;-86
2023/01/06 12:08:54;;;;;;;3.23;2.60;;;13.20;99.90;;;;;;4864861;29;20552;-86
2023/01/06 12:11:42;;;;;;;15.40;11.93;;;13.10;99.90;;;;;;4864529;29;20484;-85
2023/01/06 12:14:18;;;;;;;3.03;2.43;;;12.90;99.90;;;;;;4870404;29;20874;-86
2023/01/06 12:16:59;;;;;;;5.10;4.60;;;12.90;99.90;;;;;;4868612;29;20441;-86
2023/01/06 12:20:15;;;;;;;5.50;4.00;;;12.80;99.90;;;;;;4864906;29;20487;-86
2023/01/06 13:02:00;;;;;;;2.57;2.37;;;13.40;99.90;;;;;;5878560;23;21427;-84
2023/01/06 13:04:46;;;;;;;2.03;1.43;;;13.50;99.90;;;;;;4823998;29;20524;-88
2023/01/06 13:07:25;;;;;;;2.37;1.60;;;13.50;99.90;;;;;;4835083;29;20539;-88
2023/01/06 13:10:07;;;;;;;2.50;1.63;;;13.40;99.90;;;;;;4839304;29;20469;-87
2023/01/06 13:13:01;;;;;;;1.77;1.67;;;13.40;99.90;;;;;;4848197;29;20496;-86
2023/01/06 13:15:29;;;;;;;2.30;2.10;;;13.30;99.90;;;;;;4843522;29;20542;-85
2023/01/06 13:18:16;;;;;;;1.63;1.53;;;13.40;99.90;;;;;;4844481;29;20546;-88
2023/01/06 13:20:55;;;;;;;2.17;1.60;;;13.30;99.90;;;;;;4831440;29;20447;-86
2023/01/06 13:23:56;;;;;;;2.37;2.00;;;13.30;99.90;;;;;;4817667;29;20526;-85
2023/01/06 13:26:57;;;;;;;3.27;2.33;;;13.20;99.90;;;;;;4823413;29;20445;-86
2023/01/06 13:29:43;;;;;;;1.60;1.30;;;13.10;99.90;;;;;;4824488;29;20969;-90
2023/01/06 13:32:37;;;;;;;2.33;2.13;;;13.10;99.90;;;;;;4850923;29;20481;-84
2023/01/06 13:35:10;;;;;;;2.53;2.17;;;13.00;99.90;;;;;;4844742;29;20839;-85
2023/01/06 13:37:40;;;;;;;3.70;2.70;;;13.10;99.90;;;;;;4828088;29;20568;-85
2023/01/06 13:40:07;;;;;;;3.80;2.50;;;13.00;99.90;;;;;;4834492;29;20446;-85
2023/01/06 13:42:36;;;;;;;2.43;2.23;;;13.00;99.90;;;;;;4840227;29;20480;-84
2023/01/06 13:45:05;;;;;;;2.57;2.37;;;13.00;99.90;;;;;;4830194;29;20479;-84
2023/01/06 13:47:31;;;;;;;2.73;2.53;;;13.00;99.90;;;;;;4829751;29;21008;-84
2023/01/06 13:49:57;;;;;;;2.60;2.30;;;12.90;1.00;;;;;;4833811;29;20480;-89
2023/01/06 13:52:34;;;;;;;3.00;2.20;;;12.90;1.00;;;;;;4846930;29;20209;-84
2023/01/06 13:55:24;;;;;;;2.17;1.97;;;12.80;1.00;;;;;;4836281;29;20454;-84
2023/01/06 13:57:50;;;;;;;3.80;1.90;;;12.80;1.00;;;;;;4834294;29;20939;-83
2023/01/06 14:00:24;;;;;;;2.30;1.80;;;12.80;1.00;;;;;;4842824;29;20455;-84
2023/01/06 14:02:56;;;;;;;2.37;2.10;;;12.70;1.00;;;;;;4828658;29;20224;-84
2023/01/06 14:05:32;;;;;;;;;;;;;;;;;;;;;
2023/01/06 14:08:00;;;;;;;4.83;4.30;;;12.60;1.00;;;;;;4828426;29;20478;-85